createdAt,value
2022-12-09T00:00:12.143Z,3.90
2022-12-09T00:02:39.889Z,3.90
2022-12-09T00:05:07.550Z,4.80
2022-12-09T00:07:37.702Z,3.90
2022-12-09T00:10:06.561Z,4.00
2022-12-09T00:12:33.722Z,4.00
2022-12-09T00:15:00.783Z,4.00
2022-12-09T00:17:27.811Z,4.00
2022-12-09T00:19:54.800Z,4.00
2022-12-09T00:22:21.624Z,4.10
2022-12-09T00:24:48.574Z,4.10
2022-12-09T00:27:15.379Z,4.10
2022-12-09T00:29:42.409Z,4.10
2022-12-09T00:32:09.558Z,4.10
2022-12-09T00:34:36.742Z,4.20
2022-12-09T00:37:05.929Z,4.20
2022-12-09T00:39:32.808Z,4.20
2022-12-09T00:41:59.638Z,4.20
2022-12-09T00:44:28.401Z,4.20
2022-12-09T00:46:55.514Z,4.20
2022-12-09T00:49:22.846Z,4.20
2022-12-09T00:51:49.978Z,4.20
2022-12-09T00:54:17.075Z,4.30
2022-12-09T00:56:44.156Z,4.30
2022-12-09T00:59:11.251Z,4.30
2022-12-09T01:01:38.540Z,4.30
2022-12-09T01:04:08.393Z,4.30
2022-12-09T01:06:36.773Z,4.30
2022-12-09T01:09:04.629Z,4.40
2022-12-09T01:11:32.577Z,4.40
2022-12-09T01:14:03.092Z,4.40
2022-12-09T01:16:33.690Z,4.40
2022-12-09T01:19:05.445Z,4.40
2022-12-09T01:21:34.789Z,4.40
2022-12-09T01:24:06.998Z,4.80
2022-12-09T01:26:34.027Z,4.50
2022-12-09T01:29:00.935Z,4.50
2022-12-09T01:31:28.197Z,4.50
2022-12-09T01:33:56.399Z,4.50
2022-12-09T01:36:29.818Z,4.50
2022-12-09T01:38:59.271Z,4.50
2022-12-09T01:41:28.060Z,4.60
2022-12-09T01:44:27.936Z,4.50
2022-12-09T01:46:58.177Z,4.60
2022-12-09T01:49:41.899Z,4.60
2022-12-09T01:52:23.693Z,4.60
2022-12-09T01:54:53.432Z,4.60
2022-12-09T01:57:20.770Z,4.60
2022-12-09T01:59:48.491Z,4.70
2022-12-09T02:02:20.385Z,4.60
2022-12-09T02:04:49.894Z,4.60
2022-12-09T02:07:19.419Z,4.60
2022-12-09T02:09:47.809Z,4.60
2022-12-09T02:12:32.685Z,4.70
2022-12-09T02:15:21.130Z,4.60
2022-12-09T02:18:01.829Z,4.70
2022-12-09T02:21:01.227Z,4.70
2022-12-09T02:23:51.658Z,4.70
2022-12-09T02:26:39.980Z,4.70
2022-12-09T02:29:44.587Z,4.70
2022-12-09T02:32:19.065Z,4.70
2022-12-09T02:35:27.791Z,4.70
2022-12-09T02:38:01.042Z,4.70
2022-12-09T02:40:35.531Z,4.70
2022-12-09T02:43:07.293Z,4.70
2022-12-09T02:45:38.307Z,4.70
2022-12-09T02:48:07.041Z,4.70
2022-12-09T02:50:40.088Z,4.70
2022-12-09T02:53:12.301Z,4.70
2022-12-09T02:55:43.432Z,4.70
2022-12-09T02:58:10.504Z,4.70
2022-12-09T03:00:41.107Z,4.80
2022-12-09T03:03:16.918Z,4.70
2022-12-09T03:06:05.323Z,4.80
2022-12-09T03:08:49.068Z,4.80
2022-12-09T03:11:23.119Z,4.80
2022-12-09T03:14:00.104Z,4.80
2022-12-09T03:16:33.409Z,4.80
2022-12-09T03:19:31.408Z,4.80
2022-12-09T03:22:05.443Z,4.80
2022-12-09T03:24:50.874Z,4.80
2022-12-09T03:27:28.520Z,4.80
2022-12-09T03:30:00.238Z,4.80
2022-12-09T03:32:30.382Z,4.80
2022-12-09T03:35:27.540Z,4.80
2022-12-09T03:37:55.523Z,4.80
2022-12-09T03:40:31.792Z,4.80
2022-12-09T03:43:08.690Z,4.80
2022-12-09T03:45:36.292Z,4.80
2022-12-09T03:48:03.665Z,4.80
2022-12-09T03:50:45.171Z,4.80
2022-12-09T03:53:25.144Z,4.80
2022-12-09T03:56:05.799Z,4.80
2022-12-09T03:58:36.574Z,4.80
2022-12-09T04:01:04.087Z,4.80
2022-12-09T04:03:33.067Z,4.80
2022-12-09T04:06:00.073Z,4.80
2022-12-09T04:08:27.090Z,4.80
2022-12-09T04:10:54.081Z,4.80
2022-12-09T04:13:21.047Z,6.60
2022-12-09T04:15:48.364Z,4.80
2022-12-09T04:18:15.445Z,4.80
2022-12-09T04:20:42.503Z,4.80
2022-12-09T04:23:09.335Z,4.80
2022-12-09T04:25:37.866Z,4.90
2022-12-09T04:28:05.010Z,4.90
2022-12-09T04:30:32.184Z,4.80
2022-12-09T04:33:02.925Z,4.90
2022-12-09T04:35:29.940Z,4.90
2022-12-09T04:37:57.203Z,4.90
2022-12-09T04:40:24.727Z,4.90
2022-12-09T04:42:51.964Z,4.90
2022-12-09T04:45:18.982Z,6.70
2022-12-09T04:47:45.899Z,4.90
2022-12-09T04:50:13.619Z,4.90
2022-12-09T04:52:41.154Z,4.90
2022-12-09T04:55:08.500Z,4.90
2022-12-09T04:57:36.331Z,4.80
2022-12-09T05:00:07.335Z,4.90
2022-12-09T05:02:34.978Z,4.80
2022-12-09T05:05:02.996Z,4.80
2022-12-09T05:07:31.435Z,4.80
2022-12-09T05:09:58.982Z,4.80
2022-12-09T05:12:26.542Z,5.30
2022-12-09T05:14:53.617Z,5.20
2022-12-09T05:17:21.081Z,4.80
2022-12-09T05:19:48.046Z,4.80
2022-12-09T05:22:17.818Z,4.80
2022-12-09T05:24:47.376Z,4.80
2022-12-09T05:27:15.525Z,4.80
2022-12-09T05:29:42.544Z,4.80
2022-12-09T05:32:10.384Z,4.80
2022-12-09T05:34:39.566Z,4.90
2022-12-09T05:37:06.683Z,4.90
2022-12-09T05:39:33.842Z,4.90
2022-12-09T05:42:01.153Z,4.80
2022-12-09T05:44:28.496Z,4.80
2022-12-09T05:46:55.665Z,4.80
2022-12-09T05:49:23.004Z,5.50
2022-12-09T05:51:50.327Z,4.80
2022-12-09T05:54:17.430Z,4.80
2022-12-09T05:56:48.805Z,4.80
2022-12-09T05:59:16.342Z,6.10
2022-12-09T06:01:43.349Z,4.80
2022-12-09T06:04:10.651Z,7.00
2022-12-09T06:06:39.304Z,4.80
2022-12-09T06:09:11.713Z,4.80
2022-12-09T06:11:41.230Z,4.80
2022-12-09T06:14:11.338Z,5.10
2022-12-09T06:16:38.956Z,4.80
2022-12-09T06:19:06.735Z,4.70
2022-12-09T06:21:34.104Z,4.80
2022-12-09T06:24:01.876Z,4.70
2022-12-09T06:26:30.348Z,5.90
2022-12-09T06:28:59.628Z,4.70
2022-12-09T06:31:28.655Z,4.80
2022-12-09T06:33:57.975Z,4.80
2022-12-09T06:36:29.077Z,4.80
2022-12-09T06:39:01.781Z,4.80
2022-12-09T06:41:33.381Z,6.50
2022-12-09T06:44:00.829Z,7.00
2022-12-09T06:46:29.446Z,4.80
2022-12-09T06:48:56.917Z,4.80
2022-12-09T06:51:26.076Z,4.80
2022-12-09T06:53:54.457Z,4.80
2022-12-09T06:56:22.355Z,4.80
2022-12-09T06:58:51.323Z,4.80
2022-12-09T07:01:24.861Z,4.80
2022-12-09T07:03:56.953Z,4.80
2022-12-09T07:06:34.588Z,4.70
2022-12-09T07:09:12.991Z,4.80
2022-12-09T07:11:46.324Z,4.80
2022-12-09T07:14:18.328Z,4.70
2022-12-09T07:16:45.575Z,4.70
2022-12-09T07:19:19.935Z,4.80
2022-12-09T07:21:48.612Z,4.80
2022-12-09T07:24:16.093Z,4.80
2022-12-09T07:26:43.382Z,4.70
2022-12-09T07:29:10.570Z,6.10
2022-12-09T07:31:38.310Z,4.80
2022-12-09T07:34:05.979Z,4.80
2022-12-09T07:36:38.213Z,4.80
2022-12-09T07:39:08.625Z,6.90
2022-12-09T07:41:36.041Z,4.80
2022-12-09T07:44:04.871Z,4.80
2022-12-09T07:46:32.362Z,6.80
2022-12-09T07:49:02.669Z,4.80
2022-12-09T07:51:32.008Z,4.80
2022-12-09T07:53:59.504Z,4.80
2022-12-09T07:56:28.497Z,4.90
2022-12-09T07:58:57.435Z,4.90
2022-12-09T08:01:29.351Z,4.90
2022-12-09T08:03:58.209Z,4.90
2022-12-09T08:06:29.273Z,4.90
2022-12-09T08:09:02.930Z,4.90
2022-12-09T08:11:33.104Z,5.00
2022-12-09T08:14:10.914Z,6.60
2022-12-09T08:16:41.965Z,5.00
2022-12-09T08:19:10.296Z,5.00
2022-12-09T08:21:38.486Z,5.00
2022-12-09T08:24:07.764Z,6.50
2022-12-09T08:26:37.547Z,4.80
2022-12-09T08:29:14.137Z,5.00
2022-12-09T08:31:43.928Z,5.00
2022-12-09T08:34:12.142Z,5.00
2022-12-09T08:36:40.127Z,5.00
2022-12-09T08:39:08.735Z,5.00
2022-12-09T08:41:38.859Z,5.00
2022-12-09T08:44:09.683Z,5.00
2022-12-09T08:46:39.838Z,4.90
2022-12-09T08:49:08.289Z,4.70
2022-12-09T08:51:35.831Z,5.80
2022-12-09T08:54:05.061Z,5.00
2022-12-09T08:56:32.809Z,5.00
2022-12-09T08:59:00.445Z,6.40
2022-12-09T09:01:35.360Z,5.10
2022-12-09T09:04:13.434Z,5.10
2022-12-09T09:06:43.674Z,5.10
2022-12-09T09:09:14.099Z,5.80
2022-12-09T09:11:44.014Z,5.30
2022-12-09T09:14:13.499Z,5.30
2022-12-09T09:16:44.235Z,5.40
2022-12-09T09:19:20.652Z,7.40
2022-12-09T09:21:48.861Z,5.40
2022-12-09T09:24:20.222Z,5.40
2022-12-09T09:26:50.952Z,5.40
2022-12-09T09:29:21.422Z,5.30
2022-12-09T09:31:52.202Z,5.50
2022-12-09T09:34:21.520Z,7.10
2022-12-09T09:36:49.849Z,5.20
2022-12-09T09:39:18.634Z,5.10
2022-12-09T09:41:48.748Z,5.10
2022-12-09T09:44:24.088Z,5.00
2022-12-09T09:46:54.956Z,4.90
2022-12-09T09:49:43.940Z,5.80
2022-12-09T09:52:21.114Z,6.10
2022-12-09T09:54:48.661Z,4.60
2022-12-09T09:57:29.913Z,6.80
2022-12-09T10:00:28.756Z,4.50
2022-12-09T10:03:12.827Z,4.50
2022-12-09T10:05:58.560Z,4.50
2022-12-09T10:08:59.401Z,4.50
2022-12-09T10:11:38.509Z,4.50
2022-12-09T10:14:28.795Z,4.60
2022-12-09T10:17:27.955Z,4.60
2022-12-09T10:20:15.395Z,4.90
2022-12-09T10:22:52.305Z,4.70
2022-12-09T10:25:31.027Z,4.80
2022-12-09T10:28:27.710Z,5.40
2022-12-09T10:30:56.398Z,5.00
2022-12-09T10:33:30.563Z,5.10
2022-12-09T10:35:58.512Z,7.30
2022-12-09T10:38:28.883Z,7.60
2022-12-09T10:42:03.902Z,6.60
2022-12-09T10:44:31.890Z,5.60
2022-12-09T10:47:29.363Z,7.40
2022-12-09T10:49:59.381Z,7.30
2022-12-09T10:52:42.468Z,5.80
2022-12-09T10:55:30.815Z,5.90
2022-12-09T10:58:27.509Z,6.00
2022-12-09T11:01:06.990Z,6.10
2022-12-09T11:03:54.780Z,6.20
2022-12-09T11:06:38.944Z,6.30
2022-12-09T11:09:07.690Z,6.40
2022-12-09T11:12:05.689Z,6.40
2022-12-09T11:14:40.594Z,6.60
2022-12-09T11:17:23.526Z,6.70
2022-12-09T11:20:14.291Z,6.50
2022-12-09T11:22:45.033Z,6.90
2022-12-09T11:25:12.810Z,6.90
2022-12-09T11:27:58.522Z,9.10
2022-12-09T11:30:57.867Z,6.90
2022-12-09T11:33:37.572Z,6.80
2022-12-09T11:36:20.659Z,7.00
2022-12-09T11:38:51.370Z,6.80
2022-12-09T11:41:44.091Z,6.80
2022-12-09T11:44:35.987Z,6.80
2022-12-09T11:47:12.860Z,6.90
2022-12-09T11:50:11.629Z,8.90
2022-12-09T11:52:38.745Z,7.00
2022-12-09T11:55:11.589Z,6.90
2022-12-09T11:58:13.715Z,6.90
2022-12-09T12:00:52.440Z,6.90
2022-12-09T12:03:29.800Z,7.00
2022-12-09T12:06:02.912Z,7.00
2022-12-09T12:08:47.773Z,9.60
2022-12-09T12:11:29.296Z,8.90
2022-12-09T12:14:19.570Z,7.00
2022-12-09T12:17:09.227Z,7.10
2022-12-09T12:19:41.226Z,7.00
2022-12-09T12:22:38.856Z,7.00
2022-12-09T12:25:45.712Z,7.00
2022-12-09T12:28:30.536Z,7.10
2022-12-09T12:31:23.540Z,7.10
2022-12-09T12:34:33.045Z,7.10
2022-12-09T12:37:28.776Z,7.10
2022-12-09T12:40:27.133Z,7.10
2022-12-09T12:43:34.915Z,7.10
2022-12-09T12:46:17.445Z,7.80
2022-12-09T12:49:18.655Z,9.30
2022-12-09T12:52:53.870Z,8.30
2022-12-09T12:55:43.542Z,7.00
2022-12-09T12:58:42.859Z,7.00
2022-12-09T13:01:35.964Z,7.00
2022-12-09T13:04:44.014Z,7.00
2022-12-09T13:08:10.365Z,7.00
2022-12-09T13:10:50.943Z,7.00
2022-12-09T13:14:19.067Z,7.00
2022-12-09T13:16:47.185Z,6.90
2022-12-09T13:19:27.801Z,8.60
2022-12-09T13:21:56.130Z,6.90
2022-12-09T13:24:46.367Z,6.80
2022-12-09T13:27:24.236Z,6.90
2022-12-09T13:30:03.087Z,6.80
2022-12-09T13:32:42.224Z,6.80
2022-12-09T13:35:44.452Z,7.70
2022-12-09T13:38:40.533Z,6.60
2022-12-09T13:41:25.812Z,6.60
2022-12-09T13:44:18.806Z,6.60
2022-12-09T13:46:46.059Z,6.50
2022-12-09T13:49:24.353Z,6.50
2022-12-09T13:51:55.421Z,6.50
2022-12-09T13:54:28.630Z,6.50
2022-12-09T13:57:35.538Z,6.50
2022-12-09T14:00:07.542Z,6.40
2022-12-09T14:02:50.720Z,6.40
2022-12-09T14:05:26.287Z,6.30
2022-12-09T14:08:07.153Z,6.20
2022-12-09T14:10:48.086Z,6.20
2022-12-09T14:13:32.969Z,6.20
2022-12-09T14:16:38.470Z,6.10
2022-12-09T14:19:23.764Z,6.10
2022-12-09T14:22:19.298Z,6.10
2022-12-09T14:24:54.024Z,6.10
2022-12-09T14:27:32.135Z,6.00
2022-12-09T14:30:00.170Z,6.00
2022-12-09T14:32:36.853Z,6.00
2022-12-09T14:35:35.345Z,7.60
2022-12-09T14:38:13.293Z,6.90
2022-12-09T14:40:42.932Z,6.70
2022-12-09T14:43:34.357Z,5.80
2022-12-09T14:46:20.448Z,5.70
2022-12-09T14:49:13.094Z,5.70
2022-12-09T14:51:54.419Z,5.70
2022-12-09T14:54:34.870Z,7.20
2022-12-09T14:57:22.908Z,6.70
2022-12-09T14:59:56.102Z,5.40
2022-12-09T15:02:30.211Z,7.00
2022-12-09T15:05:01.879Z,5.30
2022-12-09T15:07:34.235Z,5.20
2022-12-09T15:10:05.545Z,7.00
2022-12-09T15:12:42.873Z,5.20
2022-12-09T15:15:22.569Z,5.10
2022-12-09T15:18:06.428Z,5.10
2022-12-09T15:20:38.862Z,5.00
2022-12-09T15:23:14.635Z,4.90
2022-12-09T15:25:52.912Z,5.10
2022-12-09T15:28:26.598Z,4.80
2022-12-09T15:31:02.661Z,5.50
2022-12-09T15:33:39.776Z,4.70
2022-12-09T15:36:16.094Z,4.60
2022-12-09T15:38:50.427Z,4.60
2022-12-09T15:41:38.613Z,6.60
2022-12-09T15:44:14.364Z,4.50
2022-12-09T15:46:45.113Z,6.50
2022-12-09T15:49:18.008Z,5.80
2022-12-09T15:51:48.095Z,4.40
2022-12-09T15:54:22.256Z,6.10
2022-12-09T15:57:02.041Z,4.30
2022-12-09T15:59:49.739Z,4.30
2022-12-09T16:02:26.856Z,4.30
2022-12-09T16:04:58.517Z,4.20
2022-12-09T16:07:25.562Z,4.20
2022-12-09T16:10:13.978Z,4.10
2022-12-09T16:12:43.598Z,4.10
2022-12-09T16:15:33.796Z,4.00
2022-12-09T16:18:03.965Z,4.00
2022-12-09T16:20:39.180Z,3.90
2022-12-09T16:23:25.574Z,3.80
2022-12-09T16:26:06.638Z,3.80
2022-12-09T16:28:34.898Z,3.70
2022-12-09T16:31:15.447Z,3.70
2022-12-09T16:33:50.894Z,3.70
2022-12-09T16:36:28.857Z,3.60
2022-12-09T16:39:07.830Z,3.50
2022-12-09T16:41:59.070Z,3.40
2022-12-09T16:44:38.160Z,3.30
2022-12-09T16:47:26.491Z,3.20
2022-12-09T16:49:53.458Z,3.00
2022-12-09T16:52:25.322Z,2.90
2022-12-09T16:54:52.350Z,2.80
2022-12-09T16:57:20.541Z,2.70
2022-12-09T16:59:48.105Z,2.60
2022-12-09T17:02:32.154Z,2.60
2022-12-09T17:05:00.547Z,2.50
2022-12-09T17:07:27.669Z,2.50
2022-12-09T17:09:54.593Z,2.50
2022-12-09T17:12:22.775Z,2.50
2022-12-09T17:14:49.878Z,2.50
2022-12-09T17:17:16.859Z,2.50
2022-12-09T17:19:44.297Z,2.60
2022-12-09T17:22:11.618Z,2.60
2022-12-09T17:24:39.582Z,2.70
2022-12-09T17:27:06.560Z,2.80
2022-12-09T17:29:33.501Z,2.80
2022-12-09T17:32:00.456Z,2.80
2022-12-09T17:34:27.339Z,2.90
2022-12-09T17:36:55.187Z,3.00
2022-12-09T17:39:24.645Z,3.00
2022-12-09T17:41:51.623Z,1.00
2022-12-09T17:44:21.091Z,4.40
2022-12-09T17:46:50.679Z,4.80
2022-12-09T17:49:19.110Z,3.20
2022-12-09T17:51:46.184Z,3.30
2022-12-09T17:54:13.204Z,3.20
2022-12-09T17:56:40.269Z,3.30
2022-12-09T17:59:12.808Z,3.30
2022-12-09T18:01:41.178Z,3.30
2022-12-09T18:04:10.371Z,3.30
2022-12-09T18:06:44.234Z,3.30
2022-12-09T18:09:18.696Z,3.30
2022-12-09T18:11:46.836Z,3.30
2022-12-09T18:14:16.445Z,3.20
2022-12-09T18:16:46.429Z,5.20
2022-12-09T18:19:17.363Z,3.20
2022-12-09T18:21:45.718Z,3.20
2022-12-09T18:24:13.361Z,3.20
2022-12-09T18:26:42.270Z,3.20
2022-12-09T18:29:11.069Z,3.20
2022-12-09T18:31:38.470Z,3.20
2022-12-09T18:34:05.514Z,3.20
2022-12-09T18:36:33.075Z,5.40
2022-12-09T18:39:00.077Z,3.30
2022-12-09T18:41:29.926Z,3.20
2022-12-09T18:44:00.702Z,3.30
2022-12-09T18:46:36.869Z,3.30
2022-12-09T18:49:12.491Z,3.30
2022-12-09T18:51:43.259Z,3.30
2022-12-09T18:54:23.378Z,3.30
2022-12-09T18:56:56.438Z,3.30
2022-12-09T18:59:25.406Z,3.30
2022-12-09T19:01:52.844Z,3.20
2022-12-09T19:04:27.337Z,3.20
2022-12-09T19:06:58.566Z,3.10
2022-12-09T19:09:31.846Z,3.10
2022-12-09T19:12:11.338Z,4.40
2022-12-09T19:14:46.223Z,3.00
2022-12-09T19:17:13.075Z,2.80
2022-12-09T19:19:40.123Z,2.80
2022-12-09T19:22:08.210Z,2.70
2022-12-09T19:24:39.769Z,2.60
2022-12-09T19:27:10.658Z,2.50
2022-12-09T19:29:37.759Z,2.40
2022-12-09T19:32:23.623Z,2.20
2022-12-09T19:34:53.025Z,2.10
2022-12-09T19:37:19.863Z,2.10
2022-12-09T19:39:46.933Z,2.00
2022-12-09T19:42:14.074Z,1.90
2022-12-09T19:47:28.026Z,1.90
2022-12-09T19:49:54.835Z,1.80
2022-12-09T19:52:21.721Z,4.00
2022-12-09T19:54:48.574Z,1.80
2022-12-09T19:57:15.550Z,1.90
2022-12-09T19:59:42.390Z,1.90
2022-12-09T20:02:12.001Z,2.00
2022-12-09T20:04:48.630Z,2.00
2022-12-09T20:07:17.250Z,2.10
2022-12-09T20:09:44.261Z,2.10
2022-12-09T20:12:11.309Z,2.20
2022-12-09T20:14:39.753Z,3.10
2022-12-09T20:17:07.740Z,2.30
2022-12-09T20:19:35.888Z,2.30
2022-12-09T20:22:02.907Z,2.30
2022-12-09T20:24:30.326Z,2.30
2022-12-09T20:26:57.252Z,2.20
2022-12-09T20:29:24.207Z,2.10
2022-12-09T20:31:52.737Z,2.00
2022-12-09T20:34:19.646Z,3.10
2022-12-09T20:36:46.839Z,1.90
2022-12-09T20:39:19.834Z,1.80
2022-12-09T20:41:48.729Z,1.70
2022-12-09T20:44:17.188Z,1.60
2022-12-09T20:46:52.949Z,1.50
2022-12-09T20:49:26.077Z,1.40
2022-12-09T20:51:54.016Z,1.40
2022-12-09T20:54:21.157Z,1.30
2022-12-09T20:56:48.917Z,1.20
2022-12-09T20:59:16.066Z,1.10
2022-12-09T21:01:43.638Z,1.10
2022-12-09T21:04:10.553Z,1.00
2022-12-09T21:06:40.127Z,2.40
2022-12-09T21:09:17.429Z,0.90
2022-12-09T21:11:46.252Z,0.80
2022-12-09T21:14:14.419Z,0.80
2022-12-09T21:16:43.181Z,0.70
2022-12-09T21:19:15.984Z,0.70
2022-12-09T21:21:50.575Z,0.60
2022-12-09T21:24:19.338Z,0.60
2022-12-09T21:26:48.701Z,0.50
2022-12-09T21:29:15.997Z,0.50
2022-12-09T21:31:44.120Z,0.40
2022-12-09T21:34:11.308Z,0.40
2022-12-09T21:36:43.254Z,0.40
2022-12-09T21:39:15.788Z,0.30
2022-12-09T21:41:43.860Z,0.30
2022-12-09T21:44:17.308Z,0.20
2022-12-09T21:46:45.447Z,0.20
2022-12-09T21:49:13.537Z,0.20
2022-12-09T21:51:40.815Z,0.10
2022-12-09T21:54:08.048Z,0.10
2022-12-09T21:56:36.653Z,0.10
2022-12-09T21:59:06.104Z,0.00
2022-12-09T22:01:41.048Z,0.00
2022-12-09T22:04:15.959Z,-0.10
2022-12-09T22:06:47.152Z,-0.10
2022-12-09T22:09:16.210Z,-0.10
2022-12-09T22:11:43.337Z,-0.10
2022-12-09T22:14:10.887Z,-0.20
2022-12-09T22:16:42.546Z,-0.20
2022-12-09T22:19:16.405Z,-0.20
2022-12-09T22:21:43.388Z,-0.20
2022-12-09T22:24:12.806Z,-0.20
2022-12-09T22:26:40.464Z,-0.20
2022-12-09T22:29:07.794Z,-0.20
2022-12-09T22:31:38.016Z,-0.20
2022-12-09T22:34:10.943Z,-0.20
2022-12-09T22:36:40.075Z,-0.30
2022-12-09T22:39:11.723Z,-0.30
2022-12-09T22:41:38.622Z,-0.30
2022-12-09T22:44:05.880Z,-0.30
2022-12-09T22:46:34.130Z,-0.30
2022-12-09T22:49:06.115Z,-0.30
2022-12-09T22:51:36.217Z,-0.40
2022-12-09T22:54:07.984Z,-0.40
2022-12-09T22:56:38.893Z,-0.40
2022-12-09T22:59:06.113Z,-0.40
2022-12-09T23:01:37.175Z,-0.50
2022-12-09T23:04:07.032Z,-0.50
2022-12-09T23:06:37.850Z,-0.50
2022-12-09T23:09:07.384Z,-0.60
2022-12-09T23:11:34.931Z,-0.60
2022-12-09T23:14:01.926Z,-0.60
2022-12-09T23:16:28.825Z,-0.60
2022-12-09T23:18:57.703Z,-0.70
2022-12-09T23:21:30.306Z,-0.70
2022-12-09T23:24:05.764Z,-0.70
2022-12-09T23:26:36.959Z,-0.70
2022-12-09T23:29:06.885Z,-0.70
2022-12-09T23:31:36.922Z,-0.60
2022-12-09T23:34:06.327Z,-0.80
2022-12-09T23:36:40.833Z,-0.80
2022-12-09T23:39:14.593Z,-0.90
2022-12-09T23:41:44.671Z,-0.90
2022-12-09T23:44:15.159Z,-1.00
2022-12-09T23:46:43.101Z,-1.00
2022-12-09T23:49:10.158Z,-1.00
2022-12-09T23:51:43.331Z,-1.10
2022-12-09T23:54:11.782Z,-1.10
2022-12-09T23:56:43.879Z,-1.10
2022-12-09T23:59:14.020Z,-1.10
